createdAt,value
2024-02-08T00:01:23.640Z,1.90
2024-02-08T00:04:52.582Z,1.87
2024-02-08T00:08:21.311Z,1.85
2024-02-08T00:11:51.108Z,1.78
2024-02-08T00:15:19.738Z,1.70
2024-02-08T00:18:48.420Z,1.63
2024-02-08T00:22:17.361Z,1.54
2024-02-08T00:25:46.107Z,1.48
2024-02-08T00:29:15.096Z,1.42
2024-02-08T00:32:43.874Z,1.39
2024-02-08T00:36:12.774Z,1.33
2024-02-08T00:39:41.649Z,1.26
2024-02-08T00:43:12.462Z,1.19
2024-02-08T00:46:41.001Z,1.12
2024-02-08T00:50:09.640Z,1.04
2024-02-08T00:53:38.499Z,1.00
2024-02-08T00:57:07.742Z,0.94
2024-02-08T01:00:36.631Z,0.90
2024-02-08T01:04:10.964Z,0.85
2024-02-08T01:07:40.832Z,0.81
2024-02-08T01:11:09.792Z,0.76
2024-02-08T01:14:41.002Z,0.75
2024-02-08T01:18:12.679Z,0.70
2024-02-08T01:21:42.249Z,0.67
2024-02-08T01:25:11.008Z,0.67
2024-02-08T01:28:39.736Z,0.67
2024-02-08T01:32:08.720Z,0.69
2024-02-08T01:35:37.605Z,0.67
2024-02-08T01:39:08.598Z,0.65
2024-02-08T01:42:37.475Z,0.61
2024-02-08T01:46:11.803Z,0.58
2024-02-08T01:49:20.189Z,0.52
2024-02-08T01:52:48.825Z,0.49
2024-02-08T01:56:17.408Z,0.45
2024-02-08T01:59:46.257Z,0.42
2024-02-08T02:03:14.887Z,0.38
2024-02-08T02:06:37.516Z,0.36
2024-02-08T02:10:06.309Z,0.32
2024-02-08T02:13:35.417Z,0.28
2024-02-08T02:17:03.475Z,0.26
2024-02-08T02:20:32.244Z,0.23
2024-02-08T02:24:00.888Z,0.23
2024-02-08T02:27:29.436Z,0.24
2024-02-08T02:30:57.955Z,0.27
2024-02-08T02:34:16.704Z,0.32
2024-02-08T02:37:38.477Z,0.37
2024-02-08T02:41:12.381Z,0.40
2024-02-08T02:44:41.106Z,0.44
2024-02-08T02:48:02.448Z,0.46
2024-02-08T02:51:31.442Z,0.47
2024-02-08T02:55:00.059Z,0.49
2024-02-08T02:58:28.652Z,0.51
2024-02-08T03:02:00.416Z,0.55
2024-02-08T03:05:29.169Z,0.57
2024-02-08T03:08:57.833Z,0.60
2024-02-08T03:12:26.657Z,0.63
2024-02-08T03:15:58.524Z,0.66
2024-02-08T03:19:27.186Z,0.68
2024-02-08T03:22:55.971Z,0.70
2024-02-08T03:26:25.064Z,0.72
2024-02-08T03:29:53.596Z,0.74
2024-02-08T03:33:22.265Z,0.75
2024-02-08T03:36:42.007Z,0.76
2024-02-08T03:40:11.022Z,0.77
2024-02-08T03:43:34.479Z,0.77
2024-02-08T03:47:03.461Z,0.78
2024-02-08T03:50:33.827Z,0.77
2024-02-08T03:54:02.680Z,0.76
2024-02-08T03:57:31.268Z,0.77
2024-02-08T04:01:00.519Z,0.77
2024-02-08T04:04:35.265Z,0.78
2024-02-08T04:08:19.344Z,0.79
2024-02-08T04:11:46.869Z,0.81
2024-02-08T04:15:16.970Z,0.81
2024-02-08T04:18:34.475Z,0.82
2024-02-08T04:22:01.437Z,0.81
2024-02-08T04:25:27.081Z,0.79
2024-02-08T04:28:54.450Z,0.80
2024-02-08T04:32:24.489Z,0.81
2024-02-08T04:35:51.760Z,0.78
2024-02-08T04:39:18.847Z,0.75
2024-02-08T04:42:46.025Z,0.71
2024-02-08T04:46:13.067Z,0.67
2024-02-08T04:49:40.242Z,0.62
2024-02-08T04:53:07.756Z,0.58
2024-02-08T04:56:36.801Z,0.52
2024-02-08T05:00:05.612Z,0.50
2024-02-08T05:03:34.528Z,0.46
2024-02-08T05:07:03.437Z,0.43
2024-02-08T05:10:32.422Z,0.39
2024-02-08T05:14:01.151Z,0.36
2024-02-08T05:17:32.826Z,0.33
2024-02-08T05:21:01.386Z,0.29
2024-02-08T05:24:29.967Z,0.26
2024-02-08T05:28:01.147Z,0.23
2024-02-08T05:31:29.771Z,0.21
2024-02-08T05:34:58.673Z,0.18
2024-02-08T05:38:27.536Z,0.16
2024-02-08T05:41:56.144Z,0.13
2024-02-08T05:45:40.297Z,0.12
2024-02-08T05:49:16.511Z,0.10
2024-02-08T05:52:45.859Z,0.08
2024-02-08T05:56:14.511Z,0.06
2024-02-08T05:59:43.314Z,0.03
2024-02-08T06:03:12.256Z,0.00
2024-02-08T06:06:56.185Z,-0.03
2024-02-08T06:24:27.655Z,-0.12
2024-02-08T06:28:11.538Z,-0.12
2024-02-08T06:31:41.509Z,-0.13
2024-02-08T06:35:11.056Z,-0.14
2024-02-08T06:38:45.073Z,-0.13
2024-02-08T06:42:30.473Z,-0.11
2024-02-08T06:45:52.869Z,-0.09
2024-02-08T06:49:22.829Z,-0.06
2024-02-08T06:52:49.941Z,-0.03
2024-02-08T06:56:17.084Z,-0.00
2024-02-08T06:59:36.729Z,0.04
2024-02-08T07:03:04.364Z,0.07
2024-02-08T07:06:24.424Z,0.12
2024-02-08T07:09:51.583Z,0.15
2024-02-08T07:13:19.467Z,0.19
2024-02-08T07:16:46.328Z,0.24
2024-02-08T07:20:13.783Z,0.31
2024-02-08T07:23:24.254Z,0.36
2024-02-08T07:26:53.951Z,0.41
2024-02-08T07:30:20.869Z,0.45
2024-02-08T07:33:47.958Z,0.49
2024-02-08T07:37:15.601Z,0.53
2024-02-08T07:40:50.117Z,0.57
2024-02-08T07:44:19.015Z,0.60
2024-02-08T07:47:47.614Z,0.65
2024-02-08T07:51:18.927Z,0.69
2024-02-08T07:54:47.589Z,0.75
2024-02-08T07:58:19.509Z,0.79
2024-02-08T08:01:48.517Z,0.82
2024-02-08T08:05:13.918Z,0.84
2024-02-08T08:08:55.077Z,0.89
2024-02-08T08:12:25.438Z,0.93
2024-02-08T08:15:54.302Z,0.95
2024-02-08T08:19:32.267Z,1.01
2024-02-08T08:23:01.027Z,1.07
2024-02-08T08:26:22.691Z,1.10
2024-02-08T08:29:40.047Z,1.14
2024-02-08T08:33:14.440Z,1.18
2024-02-08T08:36:23.095Z,1.20
2024-02-08T08:39:50.265Z,1.22
2024-02-08T08:43:18.910Z,1.24
2024-02-08T08:46:47.837Z,1.29
2024-02-08T08:50:16.768Z,1.35
2024-02-08T08:53:46.044Z,1.40
2024-02-08T08:57:15.183Z,1.42
2024-02-08T09:00:44.008Z,1.45
2024-02-08T09:04:18.763Z,1.47
2024-02-08T09:07:47.780Z,1.50
2024-02-08T09:11:16.495Z,1.56
2024-02-08T09:14:45.097Z,1.64
2024-02-08T09:18:10.382Z,1.74
2024-02-08T09:21:40.520Z,1.86
2024-02-08T09:25:22.249Z,1.98
2024-02-08T09:28:59.917Z,2.10
2024-02-08T09:32:40.849Z,2.20
2024-02-08T09:36:09.542Z,2.31
2024-02-08T09:39:38.080Z,2.37
2024-02-08T09:43:07.071Z,2.43
2024-02-08T09:46:38.763Z,2.45
2024-02-08T09:50:07.683Z,2.49
2024-02-08T09:53:38.282Z,2.55
2024-02-08T09:56:59.948Z,2.58
2024-02-08T10:00:09.132Z,2.59
2024-02-08T10:03:38.042Z,2.62
2024-02-08T10:07:07.778Z,2.67
2024-02-08T10:10:39.255Z,2.71
2024-02-08T10:14:20.502Z,2.78
2024-02-08T10:18:04.335Z,2.85
2024-02-08T10:21:33.124Z,2.92
2024-02-08T10:25:10.914Z,2.95
2024-02-08T10:28:39.880Z,2.99
2024-02-08T10:32:08.779Z,3.03
2024-02-08T10:35:46.840Z,3.04
2024-02-08T10:39:21.716Z,3.02
2024-02-08T10:42:50.518Z,3.00
2024-02-08T10:46:23.717Z,3.00
2024-02-08T10:49:52.463Z,3.00
2024-02-08T10:53:22.418Z,3.04
2024-02-08T10:56:53.752Z,3.06
2024-02-08T11:00:22.350Z,3.07
2024-02-08T11:03:57.170Z,3.07
2024-02-08T11:07:28.822Z,3.08
2024-02-08T11:10:57.617Z,3.10
2024-02-08T11:14:26.202Z,3.10
2024-02-08T11:17:55.061Z,3.14
2024-02-08T11:21:30.014Z,3.17
2024-02-08T11:25:01.718Z,3.19
2024-02-08T11:28:33.304Z,3.21
2024-02-08T11:32:01.974Z,3.24
2024-02-08T11:35:30.792Z,3.29
2024-02-08T11:39:20.870Z,3.38
2024-02-08T11:42:49.930Z,3.44
2024-02-08T11:46:18.558Z,3.47
2024-02-08T11:49:53.352Z,3.46
2024-02-08T11:53:22.380Z,3.46
2024-02-08T11:56:51.151Z,3.44
2024-02-08T12:00:20.326Z,3.42
2024-02-08T12:03:49.593Z,3.41
2024-02-08T12:07:18.655Z,3.41
2024-02-08T12:10:47.814Z,3.42
2024-02-08T12:14:24.572Z,3.41
2024-02-08T12:17:56.397Z,3.42
2024-02-08T12:21:25.227Z,3.43
2024-02-08T12:24:53.138Z,3.44
2024-02-08T12:28:01.480Z,3.42
2024-02-08T12:31:30.125Z,3.40
2024-02-08T12:34:59.660Z,3.37
2024-02-08T12:38:31.967Z,3.34
2024-02-08T12:42:00.792Z,3.35
2024-02-08T12:45:32.285Z,3.32
2024-02-08T12:49:01.438Z,3.33
2024-02-08T12:52:30.323Z,3.34
2024-02-08T12:56:01.525Z,3.36
2024-02-08T12:59:42.072Z,3.35
2024-02-08T13:03:10.680Z,3.35
2024-02-08T13:06:43.306Z,3.33
2024-02-08T13:10:11.996Z,3.32
2024-02-08T13:13:41.398Z,3.34
2024-02-08T13:17:08.568Z,3.39
2024-02-08T13:20:30.540Z,3.48
2024-02-08T13:23:59.326Z,3.57
2024-02-08T13:27:27.895Z,3.64
2024-02-08T13:31:09.448Z,3.66
2024-02-08T13:34:38.770Z,3.63
2024-02-08T13:38:06.835Z,3.57
2024-02-08T13:41:35.866Z,3.53
2024-02-08T13:45:04.707Z,3.48
2024-02-08T13:48:34.025Z,3.43
2024-02-08T13:52:02.886Z,3.38
2024-02-08T13:55:46.601Z,3.31
2024-02-08T13:59:22.474Z,3.25
2024-02-08T14:02:51.293Z,3.18
2024-02-08T14:06:21.946Z,3.14
2024-02-08T14:09:52.769Z,3.11
2024-02-08T14:13:21.428Z,3.05
2024-02-08T14:16:50.555Z,3.00
2024-02-08T14:20:19.622Z,2.94
2024-02-08T14:23:48.343Z,2.89
2024-02-08T14:27:16.864Z,2.85
2024-02-08T14:30:45.846Z,2.82
2024-02-08T14:34:14.767Z,2.77
2024-02-08T14:37:43.672Z,2.73
2024-02-08T14:41:15.480Z,2.69
2024-02-08T14:44:44.094Z,2.65
2024-02-08T14:48:13.100Z,2.62
2024-02-08T14:51:44.704Z,2.58
2024-02-08T14:55:13.437Z,2.55
2024-02-08T14:58:49.553Z,2.50
2024-02-08T15:02:26.827Z,2.46
2024-02-08T15:06:02.072Z,2.42
2024-02-08T15:09:29.549Z,2.38
2024-02-08T15:13:14.589Z,2.34
2024-02-08T15:16:43.470Z,2.29
2024-02-08T15:20:12.318Z,2.23
2024-02-08T15:23:53.129Z,2.18
2024-02-08T15:27:27.603Z,2.12
2024-02-08T15:30:59.865Z,2.07
2024-02-08T15:34:38.122Z,2.01
2024-02-08T15:41:38.901Z,1.89
2024-02-08T15:45:07.716Z,1.85
2024-02-08T15:48:46.642Z,1.80
2024-02-08T15:52:16.031Z,1.76
2024-02-08T15:55:40.227Z,1.73
2024-02-08T15:59:09.081Z,1.71
2024-02-08T16:02:38.086Z,1.68
2024-02-08T16:06:06.862Z,1.64
2024-02-08T16:09:47.320Z,1.60
2024-02-08T16:13:16.096Z,1.58
2024-02-08T16:16:45.203Z,1.55
2024-02-08T16:20:13.802Z,1.52
2024-02-08T16:23:42.673Z,1.48
2024-02-08T16:27:11.257Z,1.45
2024-02-08T16:30:52.312Z,1.42
2024-02-08T16:34:21.144Z,1.38
2024-02-08T16:38:03.142Z,1.35
2024-02-08T16:41:31.787Z,1.32
2024-02-08T16:45:00.616Z,1.30
2024-02-08T16:48:35.771Z,1.27
2024-02-08T16:52:07.588Z,1.26
2024-02-08T16:55:37.194Z,1.25
2024-02-08T16:59:05.557Z,1.23
2024-02-08T17:02:34.329Z,1.20
2024-02-08T17:06:12.158Z,1.19
2024-02-08T17:09:41.341Z,1.17
2024-02-08T17:13:19.043Z,1.16
2024-02-08T17:16:47.781Z,1.14
2024-02-08T17:20:19.697Z,1.13
2024-02-08T17:23:51.234Z,1.11
2024-02-08T17:27:25.930Z,1.11
2024-02-08T17:31:13.100Z,1.09
2024-02-08T17:34:45.056Z,1.09
2024-02-08T17:38:13.781Z,1.08
2024-02-08T17:41:42.613Z,1.07
2024-02-08T17:45:11.159Z,1.07
2024-02-08T17:48:40.830Z,1.07
2024-02-08T17:52:12.666Z,1.07
2024-02-08T17:55:41.237Z,1.07
2024-02-08T17:59:10.153Z,1.07
2024-02-08T18:02:40.098Z,1.06
2024-02-08T18:06:09.069Z,1.06
2024-02-08T18:09:37.066Z,1.06
2024-02-08T18:13:06.205Z,1.07
2024-02-08T18:16:35.113Z,1.08
2024-02-08T18:20:05.936Z,1.08
2024-02-08T18:23:35.085Z,1.08
2024-02-08T18:27:04.097Z,1.09
2024-02-08T18:30:33.842Z,1.10
2024-02-08T18:34:02.809Z,1.10
2024-02-08T18:37:32.494Z,1.10
2024-02-08T18:41:01.092Z,1.10
2024-02-08T18:44:32.098Z,1.10
2024-02-08T18:48:00.790Z,1.11
2024-02-08T18:51:29.639Z,1.12
2024-02-08T18:54:58.270Z,1.12
2024-02-08T18:58:26.949Z,1.11
2024-02-08T19:02:04.775Z,1.12
2024-02-08T19:05:37.630Z,1.13
2024-02-08T19:09:06.996Z,1.13
2024-02-08T19:12:35.928Z,1.13
2024-02-08T19:16:04.845Z,1.15
2024-02-08T19:19:33.101Z,1.18
2024-02-08T19:23:01.876Z,1.18
2024-02-08T19:26:30.658Z,1.18
2024-02-08T19:29:59.369Z,1.20
2024-02-08T19:33:28.320Z,1.20
2024-02-08T19:36:57.050Z,1.21
2024-02-08T19:40:25.946Z,1.21
2024-02-08T19:43:57.006Z,1.21
2024-02-08T19:47:34.805Z,1.19
2024-02-08T19:51:03.647Z,1.18
2024-02-08T19:54:25.594Z,1.17
2024-02-08T19:57:58.016Z,1.16
2024-02-08T20:01:32.991Z,1.15
2024-02-08T20:05:03.307Z,1.14
2024-02-08T20:08:32.442Z,1.12
2024-02-08T20:12:01.225Z,1.11
2024-02-08T20:15:38.927Z,1.11
2024-02-08T20:19:08.381Z,1.11
2024-02-08T20:22:40.278Z,1.11
2024-02-08T20:26:12.180Z,1.12
2024-02-08T20:29:41.937Z,1.12
2024-02-08T20:33:10.953Z,1.14
2024-02-08T20:36:39.719Z,1.13
2024-02-08T20:40:08.497Z,1.14
2024-02-08T20:43:36.484Z,1.14
2024-02-08T20:47:12.227Z,1.14
2024-02-08T20:50:43.877Z,1.15
2024-02-08T20:54:13.581Z,1.15
2024-02-08T20:57:43.073Z,1.17
2024-02-08T21:01:12.338Z,1.18
2024-02-08T21:04:41.047Z,1.18
2024-02-08T21:08:09.940Z,1.17
2024-02-08T21:11:41.642Z,1.17
2024-02-08T21:15:09.317Z,1.18
2024-02-08T21:18:41.006Z,1.17
2024-02-08T21:22:09.310Z,1.16
2024-02-08T21:25:38.671Z,1.16
2024-02-08T21:29:10.225Z,1.17
2024-02-08T21:32:38.875Z,1.17
2024-02-08T21:36:08.030Z,1.17
2024-02-08T21:39:36.757Z,1.16
2024-02-08T21:43:05.710Z,1.17
2024-02-08T21:46:34.649Z,1.16
2024-02-08T21:50:03.600Z,1.17
2024-02-08T21:53:32.346Z,1.16
2024-02-08T21:57:01.002Z,1.16
2024-02-08T22:00:31.197Z,1.17
2024-02-08T22:04:01.389Z,1.18
2024-02-08T22:07:30.322Z,1.19
2024-02-08T22:11:00.498Z,1.19
2024-02-08T22:14:29.423Z,1.19
2024-02-08T22:17:58.820Z,1.19
2024-02-08T22:21:27.497Z,1.19
2024-02-08T22:24:56.262Z,1.19
2024-02-08T22:28:25.238Z,1.19
2024-02-08T22:31:54.600Z,1.19
2024-02-08T22:35:23.536Z,1.19
2024-02-08T22:38:52.440Z,1.19
2024-02-08T22:42:27.013Z,1.19
2024-02-08T22:45:55.967Z,1.18
2024-02-08T22:49:24.960Z,1.18
2024-02-08T22:52:54.035Z,1.19
2024-02-08T22:56:24.706Z,1.19
2024-02-08T22:59:53.802Z,1.19
2024-02-08T23:03:28.651Z,1.20
2024-02-08T23:07:00.494Z,1.19
2024-02-08T23:10:29.518Z,1.20
2024-02-08T23:13:58.601Z,1.20
2024-02-08T23:17:27.587Z,1.21
2024-02-08T23:20:56.812Z,1.21
2024-02-08T23:24:25.645Z,1.21
2024-02-08T23:27:54.684Z,1.23
2024-02-08T23:31:24.197Z,1.24
2024-02-08T23:34:52.909Z,1.27
2024-02-08T23:38:21.858Z,1.28
2024-02-08T23:41:51.055Z,1.28
2024-02-08T23:45:20.012Z,1.30
2024-02-08T23:48:52.746Z,1.31
2024-02-08T23:52:21.807Z,1.31
2024-02-08T23:55:50.635Z,1.31
2024-02-08T23:59:19.582Z,1.31
